sensor_id;sensor_type;location;lat;lon;timestamp;P1;durP1;ratioP1;P2;durP2;ratioP2
82242;SDS011;71844;51.528;4.442;2023-07-31T00:01:54;9.60;;;2.67;;
82242;SDS011;71844;51.528;4.442;2023-07-31T00:04:21;9.93;;;2.75;;
82242;SDS011;71844;51.528;4.442;2023-07-31T00:06:47;11.07;;;3.80;;
82242;SDS011;71844;51.528;4.442;2023-07-31T00:09:14;9.10;;;2.63;;
82242;SDS011;71844;51.528;4.442;2023-07-31T00:11:41;10.30;;;2.97;;
82242;SDS011;71844;51.528;4.442;2023-07-31T00:14:08;9.68;;;2.65;;
82242;SDS011;71844;51.528;4.442;2023-07-31T00:16:34;7.97;;;2.53;;
82242;SDS011;71844;51.528;4.442;2023-07-31T00:19:02;8.13;;;3.10;;
82242;SDS011;71844;51.528;4.442;2023-07-31T00:21:29;8.40;;;2.88;;
82242;SDS011;71844;51.528;4.442;2023-07-31T00:23:56;5.75;;;2.53;;
82242;SDS011;71844;51.528;4.442;2023-07-31T00:26:22;6.72;;;2.10;;
82242;SDS011;71844;51.528;4.442;2023-07-31T00:28:49;5.38;;;2.03;;
82242;SDS011;71844;51.528;4.442;2023-07-31T00:31:16;8.35;;;2.28;;
82242;SDS011;71844;51.528;4.442;2023-07-31T00:33:43;11.85;;;3.00;;
82242;SDS011;71844;51.528;4.442;2023-07-31T00:36:09;9.43;;;2.60;;
82242;SDS011;71844;51.528;4.442;2023-07-31T00:38:36;6.97;;;2.42;;
82242;SDS011;71844;51.528;4.442;2023-07-31T00:41:03;9.52;;;2.45;;
82242;SDS011;71844;51.528;4.442;2023-07-31T00:43:30;8.20;;;2.80;;
82242;SDS011;71844;51.528;4.442;2023-07-31T00:45:56;9.32;;;2.75;;
82242;SDS011;71844;51.528;4.442;2023-07-31T00:48:23;9.30;;;3.00;;
82242;SDS011;71844;51.528;4.442;2023-07-31T00:50:50;9.27;;;2.70;;
82242;SDS011;71844;51.528;4.442;2023-07-31T00:53:17;7.05;;;2.15;;
82242;SDS011;71844;51.528;4.442;2023-07-31T00:55:44;6.75;;;2.10;;
82242;SDS011;71844;51.528;4.442;2023-07-31T00:58:14;7.05;;;2.28;;
82242;SDS011;71844;51.528;4.442;2023-07-31T01:03:17;11.88;;;2.80;;
82242;SDS011;71844;51.528;4.442;2023-07-31T01:05:49;8.27;;;2.20;;
82242;SDS011;71844;51.528;4.442;2023-07-31T01:11:27;12.45;;;3.00;;
82242;SDS011;71844;51.528;4.442;2023-07-31T01:13:58;10.85;;;2.53;;
82242;SDS011;71844;51.528;4.442;2023-07-31T01:16:25;7.30;;;2.65;;
82242;SDS011;71844;51.528;4.442;2023-07-31T01:18:53;11.85;;;2.33;;
82242;SDS011;71844;51.528;4.442;2023-07-31T01:24:08;10.05;;;3.05;;
82242;SDS011;71844;51.528;4.442;2023-07-31T01:27:08;8.23;;;2.60;;
82242;SDS011;71844;51.528;4.442;2023-07-31T01:29:56;9.25;;;2.22;;
82242;SDS011;71844;51.528;4.442;2023-07-31T01:32:30;9.23;;;3.15;;
82242;SDS011;71844;51.528;4.442;2023-07-31T01:34:58;9.20;;;2.10;;
82242;SDS011;71844;51.528;4.442;2023-07-31T01:37:29;8.80;;;2.63;;
82242;SDS011;71844;51.528;4.442;2023-07-31T01:39:56;7.72;;;2.65;;
82242;SDS011;71844;51.528;4.442;2023-07-31T01:42:23;6.55;;;2.90;;
82242;SDS011;71844;51.528;4.442;2023-07-31T01:44:50;12.98;;;3.03;;
82242;SDS011;71844;51.528;4.442;2023-07-31T01:47:16;8.57;;;3.05;;
82242;SDS011;71844;51.528;4.442;2023-07-31T01:49:43;7.90;;;2.85;;
82242;SDS011;71844;51.528;4.442;2023-07-31T01:52:10;10.38;;;3.08;;
82242;SDS011;71844;51.528;4.442;2023-07-31T01:54:37;7.75;;;2.45;;
82242;SDS011;71844;51.528;4.442;2023-07-31T01:57:03;9.40;;;3.33;;
82242;SDS011;71844;51.528;4.442;2023-07-31T01:59:31;8.50;;;2.90;;
82242;SDS011;71844;51.528;4.442;2023-07-31T02:01:58;8.90;;;2.78;;
82242;SDS011;71844;51.528;4.442;2023-07-31T02:04:24;8.27;;;2.88;;
82242;SDS011;71844;51.528;4.442;2023-07-31T02:06:52;7.65;;;2.50;;
82242;SDS011;71844;51.528;4.442;2023-07-31T02:09:19;6.68;;;2.22;;
82242;SDS011;71844;51.528;4.442;2023-07-31T02:11:45;9.40;;;3.22;;
82242;SDS011;71844;51.528;4.442;2023-07-31T02:14:12;5.75;;;2.78;;
82242;SDS011;71844;51.528;4.442;2023-07-31T02:16:39;8.25;;;2.55;;
82242;SDS011;71844;51.528;4.442;2023-07-31T02:19:06;6.82;;;2.67;;
82242;SDS011;71844;51.528;4.442;2023-07-31T02:21:33;8.57;;;2.33;;
82242;SDS011;71844;51.528;4.442;2023-07-31T02:24:03;7.85;;;2.70;;
82242;SDS011;71844;51.528;4.442;2023-07-31T02:26:30;6.13;;;2.30;;
82242;SDS011;71844;51.528;4.442;2023-07-31T02:28:57;6.65;;;2.35;;
82242;SDS011;71844;51.528;4.442;2023-07-31T02:31:24;8.95;;;2.60;;
82242;SDS011;71844;51.528;4.442;2023-07-31T02:33:53;8.30;;;2.65;;
82242;SDS011;71844;51.528;4.442;2023-07-31T02:36:20;10.15;;;2.78;;
82242;SDS011;71844;51.528;4.442;2023-07-31T02:38:47;5.60;;;2.45;;
82242;SDS011;71844;51.528;4.442;2023-07-31T02:41:14;6.88;;;2.63;;
82242;SDS011;71844;51.528;4.442;2023-07-31T02:43:40;10.52;;;3.30;;
82242;SDS011;71844;51.528;4.442;2023-07-31T02:46:07;8.35;;;2.50;;
82242;SDS011;71844;51.528;4.442;2023-07-31T02:48:34;7.43;;;2.15;;
82242;SDS011;71844;51.528;4.442;2023-07-31T02:51:01;6.43;;;2.83;;
82242;SDS011;71844;51.528;4.442;2023-07-31T02:53:27;8.82;;;3.05;;
82242;SDS011;71844;51.528;4.442;2023-07-31T02:55:54;8.90;;;2.97;;
82242;SDS011;71844;51.528;4.442;2023-07-31T02:58:21;7.00;;;2.78;;
82242;SDS011;71844;51.528;4.442;2023-07-31T03:00:48;7.55;;;2.80;;
82242;SDS011;71844;51.528;4.442;2023-07-31T03:03:15;9.68;;;3.03;;
82242;SDS011;71844;51.528;4.442;2023-07-31T03:05:42;7.90;;;2.08;;
82242;SDS011;71844;51.528;4.442;2023-07-31T03:08:09;6.80;;;2.25;;
82242;SDS011;71844;51.528;4.442;2023-07-31T03:10:36;9.63;;;2.67;;
82242;SDS011;71844;51.528;4.442;2023-07-31T03:13:03;8.52;;;2.75;;
82242;SDS011;71844;51.528;4.442;2023-07-31T03:15:29;8.25;;;2.13;;
82242;SDS011;71844;51.528;4.442;2023-07-31T03:17:56;6.60;;;2.25;;
82242;SDS011;71844;51.528;4.442;2023-07-31T03:20:23;5.70;;;2.50;;
82242;SDS011;71844;51.528;4.442;2023-07-31T03:22:50;6.13;;;2.50;;
82242;SDS011;71844;51.528;4.442;2023-07-31T03:25:17;5.40;;;2.17;;
82242;SDS011;71844;51.528;4.442;2023-07-31T03:27:44;6.88;;;2.30;;
82242;SDS011;71844;51.528;4.442;2023-07-31T03:30:10;7.40;;;2.70;;
82242;SDS011;71844;51.528;4.442;2023-07-31T03:32:37;7.05;;;1.70;;
82242;SDS011;71844;51.528;4.442;2023-07-31T03:35:04;6.22;;;2.22;;
82242;SDS011;71844;51.528;4.442;2023-07-31T03:37:31;9.63;;;2.40;;
82242;SDS011;71844;51.528;4.442;2023-07-31T03:39:58;8.20;;;2.30;;
82242;SDS011;71844;51.528;4.442;2023-07-31T03:42:25;9.35;;;2.80;;
82242;SDS011;71844;51.528;4.442;2023-07-31T03:44:52;8.35;;;3.00;;
82242;SDS011;71844;51.528;4.442;2023-07-31T03:47:19;10.43;;;2.60;;
82242;SDS011;71844;51.528;4.442;2023-07-31T03:49:46;5.95;;;2.03;;
82242;SDS011;71844;51.528;4.442;2023-07-31T03:52:12;5.63;;;2.50;;
82242;SDS011;71844;51.528;4.442;2023-07-31T03:54:39;7.65;;;2.33;;
82242;SDS011;71844;51.528;4.442;2023-07-31T03:57:06;7.75;;;2.28;;
82242;SDS011;71844;51.528;4.442;2023-07-31T03:59:32;6.38;;;2.40;;
82242;SDS011;71844;51.528;4.442;2023-07-31T04:01:59;6.43;;;1.95;;
82242;SDS011;71844;51.528;4.442;2023-07-31T04:04:26;10.63;;;3.15;;
82242;SDS011;71844;51.528;4.442;2023-07-31T04:06:53;6.95;;;2.38;;
82242;SDS011;71844;51.528;4.442;2023-07-31T04:09:19;8.25;;;2.60;;
82242;SDS011;71844;51.528;4.442;2023-07-31T04:11:46;4.47;;;2.13;;
82242;SDS011;71844;51.528;4.442;2023-07-31T04:14:13;5.80;;;2.30;;
82242;SDS011;71844;51.528;4.442;2023-07-31T04:16:40;4.78;;;2.30;;
82242;SDS011;71844;51.528;4.442;2023-07-31T04:19:07;6.05;;;2.53;;
82242;SDS011;71844;51.528;4.442;2023-07-31T04:21:34;7.35;;;3.13;;
82242;SDS011;71844;51.528;4.442;2023-07-31T04:24:01;5.15;;;1.77;;
82242;SDS011;71844;51.528;4.442;2023-07-31T04:26:27;6.20;;;2.58;;
82242;SDS011;71844;51.528;4.442;2023-07-31T04:28:54;4.60;;;2.20;;
82242;SDS011;71844;51.528;4.442;2023-07-31T04:31:21;4.28;;;2.15;;
82242;SDS011;71844;51.528;4.442;2023-07-31T04:33:48;5.03;;;2.00;;
82242;SDS011;71844;51.528;4.442;2023-07-31T04:36:14;9.00;;;1.75;;
82242;SDS011;71844;51.528;4.442;2023-07-31T04:38:41;5.75;;;2.13;;
82242;SDS011;71844;51.528;4.442;2023-07-31T04:41:08;7.45;;;2.45;;
82242;SDS011;71844;51.528;4.442;2023-07-31T04:43:35;3.83;;;1.90;;
82242;SDS011;71844;51.528;4.442;2023-07-31T04:46:05;6.70;;;3.08;;
82242;SDS011;71844;51.528;4.442;2023-07-31T04:48:32;4.90;;;2.20;;
82242;SDS011;71844;51.528;4.442;2023-07-31T04:50:59;6.65;;;2.50;;
82242;SDS011;71844;51.528;4.442;2023-07-31T04:53:25;6.30;;;2.20;;
82242;SDS011;71844;51.528;4.442;2023-07-31T04:55:52;4.57;;;2.35;;
82242;SDS011;71844;51.528;4.442;2023-07-31T04:58:19;4.70;;;2.50;;
82242;SDS011;71844;51.528;4.442;2023-07-31T05:00:46;5.70;;;1.60;;
82242;SDS011;71844;51.528;4.442;2023-07-31T05:03:12;5.82;;;1.33;;
82242;SDS011;71844;51.528;4.442;2023-07-31T05:05:39;3.67;;;1.50;;
82242;SDS011;71844;51.528;4.442;2023-07-31T05:10:35;4.40;;;2.00;;
82242;SDS011;71844;51.528;4.442;2023-07-31T05:13:02;6.32;;;2.30;;
82242;SDS011;71844;51.528;4.442;2023-07-31T05:15:29;4.43;;;2.13;;
82242;SDS011;71844;51.528;4.442;2023-07-31T05:17:56;5.90;;;2.10;;
82242;SDS011;71844;51.528;4.442;2023-07-31T05:20:23;5.72;;;2.40;;
82242;SDS011;71844;51.528;4.442;2023-07-31T05:22:50;5.28;;;2.30;;
82242;SDS011;71844;51.528;4.442;2023-07-31T05:25:17;5.57;;;2.13;;
82242;SDS011;71844;51.528;4.442;2023-07-31T05:27:44;5.03;;;2.67;;
82242;SDS011;71844;51.528;4.442;2023-07-31T05:30:11;8.20;;;2.25;;
82242;SDS011;71844;51.528;4.442;2023-07-31T05:32:37;5.18;;;2.20;;
82242;SDS011;71844;51.528;4.442;2023-07-31T05:35:04;5.75;;;2.80;;
82242;SDS011;71844;51.528;4.442;2023-07-31T05:37:31;6.75;;;2.15;;
82242;SDS011;71844;51.528;4.442;2023-07-31T05:39:59;5.18;;;2.55;;
82242;SDS011;71844;51.528;4.442;2023-07-31T05:42:25;5.40;;;2.75;;
82242;SDS011;71844;51.528;4.442;2023-07-31T05:44:52;4.70;;;2.42;;
82242;SDS011;71844;51.528;4.442;2023-07-31T05:47:20;5.97;;;2.80;;
82242;SDS011;71844;51.528;4.442;2023-07-31T05:49:48;8.50;;;3.00;;
82242;SDS011;71844;51.528;4.442;2023-07-31T05:52:15;6.40;;;2.50;;
82242;SDS011;71844;51.528;4.442;2023-07-31T05:54:42;6.78;;;2.28;;
82242;SDS011;71844;51.528;4.442;2023-07-31T05:57:09;7.75;;;2.70;;
82242;SDS011;71844;51.528;4.442;2023-07-31T05:59:35;5.85;;;2.28;;
82242;SDS011;71844;51.528;4.442;2023-07-31T06:51:46;3.10;;;2.05;;
82242;SDS011;71844;51.528;4.442;2023-07-31T06:54:13;2.75;;;2.05;;
82242;SDS011;71844;51.528;4.442;2023-07-31T06:56:39;4.93;;;2.55;;
82242;SDS011;71844;51.528;4.442;2023-07-31T06:59:07;4.32;;;2.55;;
82242;SDS011;71844;51.528;4.442;2023-07-31T07:01:34;3.97;;;2.47;;
82242;SDS011;71844;51.528;4.442;2023-07-31T07:04:01;3.67;;;2.47;;
82242;SDS011;71844;51.528;4.442;2023-07-31T07:06:27;3.53;;;2.47;;
82242;SDS011;71844;51.528;4.442;2023-07-31T07:08:54;4.70;;;2.55;;
82242;SDS011;71844;51.528;4.442;2023-07-31T07:11:21;5.10;;;2.70;;
82242;SDS011;71844;51.528;4.442;2023-07-31T07:13:48;4.05;;;2.38;;
82242;SDS011;71844;51.528;4.442;2023-07-31T07:16:15;5.63;;;2.60;;
82242;SDS011;71844;51.528;4.442;2023-07-31T07:18:42;4.28;;;2.30;;
82242;SDS011;71844;51.528;4.442;2023-07-31T07:21:29;3.90;;;2.47;;
82242;SDS011;71844;51.528;4.442;2023-07-31T07:23:55;4.68;;;2.50;;
82242;SDS011;71844;51.528;4.442;2023-07-31T07:26:22;5.00;;;2.80;;
82242;SDS011;71844;51.528;4.442;2023-07-31T07:28:49;4.45;;;2.47;;
82242;SDS011;71844;51.528;4.442;2023-07-31T07:31:16;4.53;;;2.60;;
82242;SDS011;71844;51.528;4.442;2023-07-31T07:33:43;3.75;;;2.20;;
82242;SDS011;71844;51.528;4.442;2023-07-31T07:36:10;4.22;;;2.45;;
82242;SDS011;71844;51.528;4.442;2023-07-31T07:38:38;5.93;;;2.80;;
82242;SDS011;71844;51.528;4.442;2023-07-31T07:41:05;7.30;;;3.65;;
82242;SDS011;71844;51.528;4.442;2023-07-31T07:43:32;4.22;;;2.72;;
82242;SDS011;71844;51.528;4.442;2023-07-31T07:45:59;4.97;;;3.38;;
82242;SDS011;71844;51.528;4.442;2023-07-31T07:48:26;4.13;;;3.00;;
82242;SDS011;71844;51.528;4.442;2023-07-31T07:50:55;4.53;;;3.45;;
82242;SDS011;71844;51.528;4.442;2023-07-31T07:53:22;6.25;;;3.78;;
82242;SDS011;71844;51.528;4.442;2023-07-31T07:55:49;4.88;;;3.28;;
82242;SDS011;71844;51.528;4.442;2023-07-31T07:58:15;4.97;;;3.60;;
82242;SDS011;71844;51.528;4.442;2023-07-31T08:00:47;5.43;;;3.63;;
82242;SDS011;71844;51.528;4.442;2023-07-31T08:03:15;5.60;;;3.28;;
82242;SDS011;71844;51.528;4.442;2023-07-31T08:05:43;5.82;;;3.63;;
82242;SDS011;71844;51.528;4.442;2023-07-31T08:08:14;8.93;;;3.58;;
82242;SDS011;71844;51.528;4.442;2023-07-31T08:10:44;8.35;;;3.30;;
82242;SDS011;71844;51.528;4.442;2023-07-31T08:13:11;7.75;;;3.78;;
82242;SDS011;71844;51.528;4.442;2023-07-31T08:15:40;9.45;;;3.35;;
82242;SDS011;71844;51.528;4.442;2023-07-31T08:18:08;5.53;;;3.45;;
82242;SDS011;71844;51.528;4.442;2023-07-31T08:20:35;4.93;;;3.40;;
82242;SDS011;71844;51.528;4.442;2023-07-31T08:23:02;5.07;;;2.75;;
82242;SDS011;71844;51.528;4.442;2023-07-31T08:25:29;5.20;;;3.30;;
82242;SDS011;71844;51.528;4.442;2023-07-31T08:27:56;5.40;;;3.28;;
82242;SDS011;71844;51.528;4.442;2023-07-31T08:30:23;5.50;;;2.90;;
82242;SDS011;71844;51.528;4.442;2023-07-31T08:32:50;4.60;;;2.85;;
82242;SDS011;71844;51.528;4.442;2023-07-31T08:35:17;7.05;;;2.83;;
82242;SDS011;71844;51.528;4.442;2023-07-31T08:37:43;5.70;;;3.28;;
82242;SDS011;71844;51.528;4.442;2023-07-31T08:40:10;5.25;;;2.63;;
82242;SDS011;71844;51.528;4.442;2023-07-31T08:42:47;4.28;;;2.50;;
82242;SDS011;71844;51.528;4.442;2023-07-31T08:45:16;4.10;;;2.08;;
82242;SDS011;71844;51.528;4.442;2023-07-31T08:47:45;3.15;;;2.28;;
82242;SDS011;71844;51.528;4.442;2023-07-31T08:50:17;5.18;;;2.35;;
82242;SDS011;71844;51.528;4.442;2023-07-31T08:52:46;5.28;;;2.67;;
82242;SDS011;71844;51.528;4.442;2023-07-31T08:55:13;2.92;;;1.45;;
82242;SDS011;71844;51.528;4.442;2023-07-31T08:57:41;3.25;;;2.10;;
82242;SDS011;71844;51.528;4.442;2023-07-31T09:00:09;3.50;;;1.80;;
82242;SDS011;71844;51.528;4.442;2023-07-31T09:02:38;3.38;;;1.90;;
82242;SDS011;71844;51.528;4.442;2023-07-31T09:05:12;5.57;;;1.90;;
82242;SDS011;71844;51.528;4.442;2023-07-31T09:07:39;4.13;;;1.90;;
82242;SDS011;71844;51.528;4.442;2023-07-31T09:10:08;4.13;;;1.77;;
82242;SDS011;71844;51.528;4.442;2023-07-31T09:12:35;2.60;;;1.65;;
82242;SDS011;71844;51.528;4.442;2023-07-31T09:15:03;3.58;;;1.73;;
82242;SDS011;71844;51.528;4.442;2023-07-31T09:17:31;3.83;;;1.63;;
82242;SDS011;71844;51.528;4.442;2023-07-31T09:20:13;5.43;;;1.50;;
82242;SDS011;71844;51.528;4.442;2023-07-31T09:22:44;3.97;;;1.92;;
82242;SDS011;71844;51.528;4.442;2023-07-31T09:25:15;2.55;;;1.30;;
82242;SDS011;71844;51.528;4.442;2023-07-31T09:27:59;3.72;;;1.50;;
82242;SDS011;71844;51.528;4.442;2023-07-31T09:30:28;3.90;;;1.30;;
82242;SDS011;71844;51.528;4.442;2023-07-31T09:33:03;2.67;;;1.42;;
82242;SDS011;71844;51.528;4.442;2023-07-31T09:35:34;2.85;;;1.50;;
82242;SDS011;71844;51.528;4.442;2023-07-31T09:38:11;3.35;;;1.35;;
82242;SDS011;71844;51.528;4.442;2023-07-31T09:40:40;3.22;;;1.50;;
82242;SDS011;71844;51.528;4.442;2023-07-31T09:43:09;3.65;;;1.58;;
82242;SDS011;71844;51.528;4.442;2023-07-31T09:45:38;3.22;;;1.88;;
82242;SDS011;71844;51.528;4.442;2023-07-31T09:48:09;3.20;;;1.58;;
82242;SDS011;71844;51.528;4.442;2023-07-31T09:50:37;2.88;;;1.90;;
82242;SDS011;71844;51.528;4.442;2023-07-31T09:53:05;3.67;;;2.22;;
82242;SDS011;71844;51.528;4.442;2023-07-31T09:55:33;3.75;;;1.80;;
82242;SDS011;71844;51.528;4.442;2023-07-31T09:58:04;2.30;;;1.33;;
82242;SDS011;71844;51.528;4.442;2023-07-31T10:00:39;2.95;;;1.85;;
82242;SDS011;71844;51.528;4.442;2023-07-31T10:03:07;2.30;;;1.40;;
82242;SDS011;71844;51.528;4.442;2023-07-31T10:05:53;2.88;;;1.80;;
82242;SDS011;71844;51.528;4.442;2023-07-31T10:08:23;2.95;;;1.60;;
82242;SDS011;71844;51.528;4.442;2023-07-31T10:10:58;4.43;;;1.55;;
82242;SDS011;71844;51.528;4.442;2023-07-31T10:13:29;4.05;;;1.90;;
82242;SDS011;71844;51.528;4.442;2023-07-31T10:15:59;3.28;;;1.58;;
82242;SDS011;71844;51.528;4.442;2023-07-31T10:18:27;3.83;;;1.90;;
82242;SDS011;71844;51.528;4.442;2023-07-31T10:20:55;2.25;;;1.42;;
82242;SDS011;71844;51.528;4.442;2023-07-31T10:23:23;2.78;;;1.27;;
82242;SDS011;71844;51.528;4.442;2023-07-31T10:25:53;2.35;;;1.65;;
82242;SDS011;71844;51.528;4.442;2023-07-31T10:28:20;2.55;;;1.50;;
82242;SDS011;71844;51.528;4.442;2023-07-31T10:30:47;2.80;;;1.73;;
82242;SDS011;71844;51.528;4.442;2023-07-31T10:33:16;2.15;;;1.55;;
82242;SDS011;71844;51.528;4.442;2023-07-31T10:35:44;4.05;;;1.85;;
82242;SDS011;71844;51.528;4.442;2023-07-31T10:38:13;2.33;;;1.67;;
82242;SDS011;71844;51.528;4.442;2023-07-31T10:40:39;2.92;;;1.83;;
82242;SDS011;71844;51.528;4.442;2023-07-31T10:43:07;3.13;;;1.80;;
82242;SDS011;71844;51.528;4.442;2023-07-31T10:45:38;2.60;;;1.40;;
82242;SDS011;71844;51.528;4.442;2023-07-31T10:48:15;2.75;;;1.02;;
82242;SDS011;71844;51.528;4.442;2023-07-31T10:56:11;4.18;;;1.65;;
82242;SDS011;71844;51.528;4.442;2023-07-31T10:58:40;2.17;;;1.20;;
82242;SDS011;71844;51.528;4.442;2023-07-31T11:01:10;2.50;;;1.33;;
82242;SDS011;71844;51.528;4.442;2023-07-31T11:03:45;2.72;;;1.60;;
82242;SDS011;71844;51.528;4.442;2023-07-31T11:06:14;1.85;;;0.93;;
82242;SDS011;71844;51.528;4.442;2023-07-31T11:08:45;2.75;;;1.42;;
82242;SDS011;71844;51.528;4.442;2023-07-31T11:11:14;1.90;;;1.30;;
82242;SDS011;71844;51.528;4.442;2023-07-31T11:13:43;3.22;;;1.00;;
82242;SDS011;71844;51.528;4.442;2023-07-31T11:16:16;2.10;;;1.40;;
82242;SDS011;71844;51.528;4.442;2023-07-31T11:18:45;2.15;;;1.50;;
82242;SDS011;71844;51.528;4.442;2023-07-31T11:21:16;3.92;;;1.40;;
82242;SDS011;71844;51.528;4.442;2023-07-31T11:23:46;2.03;;;1.35;;
82242;SDS011;71844;51.528;4.442;2023-07-31T11:26:13;1.85;;;1.30;;
82242;SDS011;71844;51.528;4.442;2023-07-31T11:28:40;2.58;;;1.40;;
82242;SDS011;71844;51.528;4.442;2023-07-31T11:31:10;2.80;;;1.30;;
82242;SDS011;71844;51.528;4.442;2023-07-31T11:33:37;2.30;;;1.17;;
82242;SDS011;71844;51.528;4.442;2023-07-31T11:36:04;2.78;;;1.05;;
82242;SDS011;71844;51.528;4.442;2023-07-31T11:38:32;2.25;;;1.20;;
82242;SDS011;71844;51.528;4.442;2023-07-31T11:43:32;2.75;;;1.23;;
82242;SDS011;71844;51.528;4.442;2023-07-31T11:45:59;3.10;;;2.17;;
82242;SDS011;71844;51.528;4.442;2023-07-31T11:48:31;3.28;;;2.13;;
82242;SDS011;71844;51.528;4.442;2023-07-31T11:53:50;3.15;;;1.67;;
82242;SDS011;71844;51.528;4.442;2023-07-31T11:56:20;3.85;;;2.03;;
82242;SDS011;71844;51.528;4.442;2023-07-31T11:58:53;3.67;;;2.58;;
82242;SDS011;71844;51.528;4.442;2023-07-31T12:01:23;3.53;;;2.90;;
82242;SDS011;71844;51.528;4.442;2023-07-31T12:03:50;4.80;;;3.55;;
82242;SDS011;71844;51.528;4.442;2023-07-31T12:06:19;4.85;;;3.50;;
82242;SDS011;71844;51.528;4.442;2023-07-31T12:08:47;6.63;;;4.38;;
82242;SDS011;71844;51.528;4.442;2023-07-31T12:11:15;4.60;;;3.13;;
82242;SDS011;71844;51.528;4.442;2023-07-31T12:13:44;5.45;;;3.85;;
82242;SDS011;71844;51.528;4.442;2023-07-31T12:16:10;5.55;;;3.80;;
82242;SDS011;71844;51.528;4.442;2023-07-31T12:18:38;5.30;;;3.80;;
82242;SDS011;71844;51.528;4.442;2023-07-31T12:21:06;5.80;;;3.63;;
82242;SDS011;71844;51.528;4.442;2023-07-31T12:23:35;5.90;;;4.63;;
82242;SDS011;71844;51.528;4.442;2023-07-31T12:26:04;5.63;;;4.03;;
82242;SDS011;71844;51.528;4.442;2023-07-31T12:28:34;5.25;;;3.55;;
82242;SDS011;71844;51.528;4.442;2023-07-31T12:31:03;6.28;;;4.03;;
82242;SDS011;71844;51.528;4.442;2023-07-31T12:33:31;6.70;;;3.90;;
82242;SDS011;71844;51.528;4.442;2023-07-31T12:36:03;8.07;;;3.65;;
82242;SDS011;71844;51.528;4.442;2023-07-31T12:38:32;5.18;;;3.55;;
82242;SDS011;71844;51.528;4.442;2023-07-31T12:40:59;5.53;;;3.47;;
82242;SDS011;71844;51.528;4.442;2023-07-31T12:43:26;5.18;;;3.13;;
82242;SDS011;71844;51.528;4.442;2023-07-31T12:45:54;7.40;;;3.65;;
82242;SDS011;71844;51.528;4.442;2023-07-31T12:48:22;6.72;;;3.88;;
82242;SDS011;71844;51.528;4.442;2023-07-31T12:50:49;5.82;;;3.70;;
82242;SDS011;71844;51.528;4.442;2023-07-31T12:53:15;6.95;;;3.90;;
82242;SDS011;71844;51.528;4.442;2023-07-31T12:55:42;6.47;;;4.05;;
82242;SDS011;71844;51.528;4.442;2023-07-31T12:58:09;7.30;;;3.83;;
82242;SDS011;71844;51.528;4.442;2023-07-31T13:00:36;6.07;;;3.47;;
82242;SDS011;71844;51.528;4.442;2023-07-31T13:03:04;5.95;;;3.60;;
82242;SDS011;71844;51.528;4.442;2023-07-31T13:05:31;5.10;;;3.30;;
82242;SDS011;71844;51.528;4.442;2023-07-31T13:07:57;6.43;;;3.55;;
82242;SDS011;71844;51.528;4.442;2023-07-31T13:10:24;6.90;;;3.63;;
82242;SDS011;71844;51.528;4.442;2023-07-31T13:12:53;6.45;;;3.10;;
82242;SDS011;71844;51.528;4.442;2023-07-31T13:15:20;6.78;;;4.00;;
82242;SDS011;71844;51.528;4.442;2023-07-31T13:17:47;5.53;;;2.85;;
82242;SDS011;71844;51.528;4.442;2023-07-31T13:20:13;5.85;;;3.28;;
82242;SDS011;71844;51.528;4.442;2023-07-31T13:22:40;5.80;;;3.33;;
82242;SDS011;71844;51.528;4.442;2023-07-31T13:25:11;6.40;;;3.40;;
82242;SDS011;71844;51.528;4.442;2023-07-31T13:27:38;5.18;;;3.50;;
82242;SDS011;71844;51.528;4.442;2023-07-31T13:30:05;4.88;;;3.17;;
82242;SDS011;71844;51.528;4.442;2023-07-31T13:32:32;5.97;;;3.67;;
82242;SDS011;71844;51.528;4.442;2023-07-31T13:34:59;3.95;;;2.83;;
82242;SDS011;71844;51.528;4.442;2023-07-31T13:37:26;5.03;;;2.83;;
82242;SDS011;71844;51.528;4.442;2023-07-31T13:39:53;7.90;;;3.03;;
82242;SDS011;71844;51.528;4.442;2023-07-31T13:42:20;5.32;;;3.13;;
82242;SDS011;71844;51.528;4.442;2023-07-31T13:44:46;5.95;;;3.63;;
82242;SDS011;71844;51.528;4.442;2023-07-31T13:47:13;4.95;;;3.15;;
82242;SDS011;71844;51.528;4.442;2023-07-31T13:49:40;5.35;;;3.53;;
82242;SDS011;71844;51.528;4.442;2023-07-31T13:52:09;6.90;;;3.50;;
82242;SDS011;71844;51.528;4.442;2023-07-31T13:54:36;6.28;;;3.53;;
82242;SDS011;71844;51.528;4.442;2023-07-31T13:57:03;5.07;;;3.13;;
82242;SDS011;71844;51.528;4.442;2023-07-31T13:59:30;6.30;;;3.17;;
82242;SDS011;71844;51.528;4.442;2023-07-31T14:01:56;4.72;;;2.30;;
82242;SDS011;71844;51.528;4.442;2023-07-31T14:04:23;4.57;;;2.58;;
82242;SDS011;71844;51.528;4.442;2023-07-31T14:06:50;3.78;;;2.30;;
82242;SDS011;71844;51.528;4.442;2023-07-31T14:09:17;3.58;;;1.83;;
82242;SDS011;71844;51.528;4.442;2023-07-31T14:11:44;3.72;;;1.42;;
82242;SDS011;71844;51.528;4.442;2023-07-31T14:14:10;4.03;;;2.72;;
82242;SDS011;71844;51.528;4.442;2023-07-31T14:16:38;3.58;;;1.83;;
82242;SDS011;71844;51.528;4.442;2023-07-31T14:19:05;3.60;;;1.42;;
82242;SDS011;71844;51.528;4.442;2023-07-31T14:21:34;3.92;;;2.00;;
82242;SDS011;71844;51.528;4.442;2023-07-31T14:24:01;2.97;;;1.90;;
82242;SDS011;71844;51.528;4.442;2023-07-31T14:26:28;3.10;;;2.05;;
82242;SDS011;71844;51.528;4.442;2023-07-31T14:28:55;2.92;;;1.20;;
82242;SDS011;71844;51.528;4.442;2023-07-31T14:31:22;2.58;;;1.35;;
82242;SDS011;71844;51.528;4.442;2023-07-31T14:33:49;1.92;;;1.13;;
82242;SDS011;71844;51.528;4.442;2023-07-31T14:36:16;2.50;;;1.13;;
82242;SDS011;71844;51.528;4.442;2023-07-31T14:38:43;3.70;;;1.23;;
82242;SDS011;71844;51.528;4.442;2023-07-31T14:41:09;2.75;;;1.73;;
82242;SDS011;71844;51.528;4.442;2023-07-31T14:43:36;2.53;;;1.08;;
82242;SDS011;71844;51.528;4.442;2023-07-31T14:46:03;2.53;;;1.20;;
82242;SDS011;71844;51.528;4.442;2023-07-31T14:48:30;1.85;;;1.08;;
82242;SDS011;71844;51.528;4.442;2023-07-31T14:50:57;2.00;;;0.98;;
82242;SDS011;71844;51.528;4.442;2023-07-31T14:53:24;2.30;;;0.80;;
82242;SDS011;71844;51.528;4.442;2023-07-31T14:55:51;2.38;;;0.90;;
82242;SDS011;71844;51.528;4.442;2023-07-31T14:58:18;2.65;;;1.15;;
82242;SDS011;71844;51.528;4.442;2023-07-31T15:00:45;2.15;;;0.80;;
82242;SDS011;71844;51.528;4.442;2023-07-31T15:03:12;2.45;;;1.30;;
82242;SDS011;71844;51.528;4.442;2023-07-31T15:05:39;3.45;;;1.60;;
82242;SDS011;71844;51.528;4.442;2023-07-31T15:08:05;1.77;;;1.08;;
82242;SDS011;71844;51.528;4.442;2023-07-31T15:10:32;1.98;;;1.20;;
82242;SDS011;71844;51.528;4.442;2023-07-31T15:12:59;2.88;;;1.58;;
82242;SDS011;71844;51.528;4.442;2023-07-31T15:15:27;2.88;;;1.60;;
82242;SDS011;71844;51.528;4.442;2023-07-31T15:17:54;1.98;;;0.93;;
82242;SDS011;71844;51.528;4.442;2023-07-31T15:20:22;2.38;;;1.48;;
82242;SDS011;71844;51.528;4.442;2023-07-31T15:22:49;2.05;;;1.10;;
82242;SDS011;71844;51.528;4.442;2023-07-31T15:25:16;2.55;;;1.10;;
82242;SDS011;71844;51.528;4.442;2023-07-31T15:27:43;1.60;;;0.70;;
82242;SDS011;71844;51.528;4.442;2023-07-31T15:30:09;1.63;;;0.80;;
82242;SDS011;71844;51.528;4.442;2023-07-31T15:32:37;2.28;;;0.88;;
82242;SDS011;71844;51.528;4.442;2023-07-31T15:35:05;1.70;;;0.80;;
82242;SDS011;71844;51.528;4.442;2023-07-31T15:37:32;1.30;;;0.80;;
82242;SDS011;71844;51.528;4.442;2023-07-31T15:39:59;1.92;;;1.00;;
82242;SDS011;71844;51.528;4.442;2023-07-31T15:42:26;2.22;;;1.00;;
82242;SDS011;71844;51.528;4.442;2023-07-31T15:44:52;1.73;;;0.90;;
82242;SDS011;71844;51.528;4.442;2023-07-31T15:47:19;2.13;;;1.10;;
82242;SDS011;71844;51.528;4.442;2023-07-31T15:49:46;2.30;;;1.27;;
82242;SDS011;71844;51.528;4.442;2023-07-31T15:52:13;1.90;;;1.10;;
82242;SDS011;71844;51.528;4.442;2023-07-31T15:54:40;2.78;;;0.93;;
82242;SDS011;71844;51.528;4.442;2023-07-31T15:57:07;2.55;;;1.40;;
82242;SDS011;71844;51.528;4.442;2023-07-31T15:59:34;2.42;;;1.50;;
82242;SDS011;71844;51.528;4.442;2023-07-31T16:02:01;2.30;;;1.30;;
82242;SDS011;71844;51.528;4.442;2023-07-31T16:04:28;2.92;;;1.20;;